Time;durP1;ratioP1;P1;durP2;ratioP2;P2;SDS_P1;SDS_P2;PMS_P1;PMS_P2;Temp;Humidity;BMP_temperature;BMP_pressure;BME280_temperature;BME280_humidity;BME280_pressure;Samples;Min_cycle;Max_cycle;Signal;HPM_P1;HPM_P2
2022/06/04 00:01:16;;;;;;;4.53;3.55;;;;;;;6.51;81.28;101168.03;5040103;28;20049;-59
2022/06/04 00:03:46;;;;;;;6.68;3.40;;;;;;;6.49;79.29;101173.22;5039750;28;20049;-59
2022/06/04 00:06:17;;;;;;;7.10;3.80;;;;;;;6.49;78.14;101183.59;5040015;28;20148;-59
2022/06/04 00:08:49;;;;;;;6.50;3.55;;;;;;;6.53;79.12;101174.13;5039986;28;20049;-59
2022/06/04 00:16:54;;;;;;;6.55;4.05;;;;;;;6.83;79.61;101182.31;5039550;28;20049;-59
2022/06/04 00:19:25;;;;;;;6.70;3.90;;;;;;;6.95;79.05;101179.03;5039322;28;20095;-60
2022/06/04 00:21:55;;;;;;;5.40;3.47;;;;;;;6.85;76.69;101177.16;5039700;28;20331;-60
2022/06/04 00:24:27;;;;;;;7.43;4.20;;;;;;;6.84;77.67;101176.31;5039565;28;20271;-60
2022/06/04 00:26:58;;;;;;;6.90;3.90;;;;;;;6.61;79.12;101136.13;5039366;28;20049;-60
2022/06/04 00:29:31;;;;;;;10.30;5.05;;;;;;;6.90;78.78;101176.38;5039347;28;20083;-60
2022/06/04 00:32:02;;;;;;;8.88;4.80;;;;;;;6.94;79.38;101176.41;5039207;28;20108;-60
2022/06/04 00:34:32;;;;;;;8.13;3.70;;;;;;;6.74;80.38;101174.44;5039296;28;20081;-60
2022/06/04 00:37:03;;;;;;;7.70;4.53;;;;;;;6.52;81.26;101174.97;5039355;28;20053;-60
2022/06/04 00:39:34;;;;;;;9.48;3.75;;;;;;;6.41;80.98;101175.66;5039141;28;20336;-59
2022/06/04 00:42:10;;;;;;;13.27;4.47;;;;;;;6.51;82.32;101181.00;5039215;28;20069;-60
2022/06/04 00:45:25;;;;;;;11.68;5.05;;;;;;;6.48;80.63;101177.50;5039066;28;20287;-60
2022/06/04 00:47:55;;;;;;;9.43;4.70;;;;;;;6.46;81.81;101187.03;5038960;28;20057;-60
2022/06/04 00:50:26;;;;;;;7.50;4.40;;;;;;;6.49;81.85;101188.78;5038982;28;20057;-60
2022/06/04 00:52:59;;;;;;;6.90;3.47;;;;;;;6.37;80.84;101184.28;5038846;28;20341;-59
2022/06/04 00:55:39;;;;;;;6.75;3.97;;;;;;;6.43;81.60;101179.16;5038908;28;20087;-60
2022/06/04 00:58:24;;;;;;;10.43;4.45;;;;;;;6.50;81.70;101179.28;5038654;28;20254;-59
2022/06/04 01:00:59;;;;;;;10.68;4.90;;;;;;;6.50;82.05;101176.66;5039003;28;20088;-59
2022/06/04 01:03:44;;;;;;;10.15;4.97;;;;;;;6.55;80.84;101172.41;5038776;28;20065;-59
2022/06/04 01:06:30;;;;;;;10.70;4.68;;;;;;;6.45;81.20;101167.09;5038955;28;20309;-59
2022/06/04 01:09:22;;;;;;;9.68;4.65;;;;;;;6.69;80.50;101186.47;5038765;28;20060;-59
2022/06/04 01:12:10;;;;;;;11.18;6.57;;;;;;;6.80;78.66;101178.84;5038840;28;20056;-59
2022/06/04 01:15:02;;;;;;;11.73;5.75;;;;;;;6.77;80.18;101192.66;5038630;28;20068;-59
2022/06/04 01:17:45;;;;;;;13.98;6.30;;;;;;;6.81;80.50;101194.41;5038581;28;20057;-59
2022/06/04 01:20:28;;;;;;;17.13;7.25;;;;;;;6.96;79.06;101196.34;5024182;28;20115;-60
2022/06/04 01:23:35;;;;;;;11.07;5.53;;;;;;;6.84;79.28;101180.59;5025249;28;20049;-61
2022/06/04 01:26:31;;;;;;;13.85;7.43;;;;;;;6.80;75.61;101181.44;5029434;28;20049;-60
2022/06/04 01:29:06;;;;;;;13.73;8.85;;;;;;;6.93;72.84;101185.06;5038064;28;20061;-60
2022/06/04 01:31:41;;;;;;;14.48;7.90;;;;;;;6.90;75.63;101186.75;5038121;28;20049;-59
2022/06/04 01:34:14;;;;;;;16.70;7.53;;;;;;;6.91;76.40;101178.13;5038121;28;20064;-59
2022/06/04 01:36:51;;;;;;;13.38;7.40;;;;;;;7.10;77.07;101184.41;5029412;28;20113;-59
2022/06/04 01:39:24;;;;;;;12.80;6.80;;;;;;;7.19;78.80;101178.47;5023543;28;20378;-60
2022/06/04 01:41:59;;;;;;;16.08;7.40;;;;;;;7.29;76.36;101180.34;5018477;28;20386;-60
2022/06/04 01:44:34;;;;;;;14.65;7.90;;;;;;;7.54;75.44;101180.59;5028529;28;20108;-60
2022/06/04 01:47:06;;;;;;;13.88;8.40;;;;;;;7.63;70.12;101185.88;5027319;28;20117;-59
2022/06/04 01:49:42;;;;;;;16.60;9.25;;;;;;;7.06;69.24;101088.19;5027704;28;20054;-60
2022/06/04 01:52:17;;;;;;;15.38;8.73;;;;;;;7.66;68.54;101180.75;5026588;28;20073;-59
2022/06/04 01:54:54;;;;;;;14.57;8.52;;;;;;;7.86;68.70;101177.44;5018151;28;20092;-60
2022/06/04 01:57:34;;;;;;;14.15;8.32;;;;;;;7.98;67.15;101175.81;5017157;28;20079;-59
2022/06/04 02:00:07;;;;;;;;;;;;;;;8.00;67.33;101170.63;5018487;28;20054;-60
2022/06/04 02:02:41;;;;;;;14.35;8.00;;;;;;;7.66;67.57;101133.91;5017967;28;20271;-59
2022/06/04 02:05:18;;;;;;;14.23;7.40;;;;;;;7.96;67.04;101163.66;5017720;28;20117;-60
2022/06/04 02:07:52;;;;;;;15.02;7.82;;;;;;;8.00;65.50;101155.88;5017736;28;20054;-59
2022/06/04 02:10:28;;;;;;;14.45;8.63;;;;;;;8.06;67.53;101155.06;5017616;28;20121;-59
2022/06/04 02:13:02;;;;;;;17.33;10.35;;;;;;;8.30;66.88;101148.31;5018000;28;20085;-60
2022/06/04 02:15:38;;;;;;;13.85;8.75;;;;;;;8.69;66.60;101144.25;5017565;28;20072;-60
2022/06/04 02:18:12;;;;;;;13.82;8.52;;;;;;;8.76;64.33;101153.81;5018985;28;20068;-59
2022/06/04 02:20:43;;;;;;;15.65;9.50;;;;;;;8.82;64.26;101153.88;5028785;28;20069;-59
2022/06/04 02:23:14;;;;;;;16.38;9.43;;;;;;;8.93;62.74;101144.34;5027965;28;20079;-59
2022/06/04 02:25:44;;;;;;;18.13;10.13;;;;;;;9.10;64.09;101133.13;5018983;28;20121;-59
2022/06/04 02:28:17;;;;;;;16.10;8.25;;;;;;;9.18;63.72;101134.88;5023582;28;20089;-58
2022/06/04 02:30:56;;;;;;;17.23;9.70;;;;;;;9.24;64.09;101139.28;5019168;28;20065;-59
2022/06/04 02:33:39;;;;;;;17.38;10.38;;;;;;;9.15;63.20;101144.44;5030477;28;20193;-59
2022/06/04 02:36:16;;;;;;;16.80;9.73;;;;;;;8.95;62.32;101139.16;5024971;28;20069;-58
2022/06/04 02:38:53;;;;;;;15.35;9.70;;;;;;;8.90;64.20;101141.75;5025352;28;20124;-59
2022/06/04 02:41:26;;;;;;;18.98;10.35;;;;;;;8.88;62.48;101117.41;5027104;28;20061;-58
2022/06/04 02:44:07;;;;;;;19.50;9.15;;;;;;;8.97;62.57;101147.88;5020198;28;20128;-58
2022/06/04 02:46:41;;;;;;;17.33;10.55;;;;;;;9.14;62.58;101150.53;5026774;28;20592;-59
2022/06/04 02:49:18;;;;;;;16.40;9.43;;;;;;;9.22;63.16;101148.81;5026813;28;20063;-58
2022/06/04 02:51:52;;;;;;;16.75;9.93;;;;;;;9.17;62.02;101147.94;5027024;28;20621;-59
2022/06/04 02:54:27;;;;;;;19.55;9.85;;;;;;;8.98;62.70;101147.84;5024597;28;20052;-59
2022/06/04 02:56:59;;;;;;;17.45;9.60;;;;;;;8.94;62.59;101151.31;5021616;28;20065;-58
2022/06/04 02:59:35;;;;;;;16.48;9.38;;;;;;;8.28;61.95;101082.31;5017067;28;20068;-58
2022/06/04 03:02:08;;;;;;;14.95;8.20;;;;;;;8.74;62.39;101146.03;5030672;28;20366;-58
2022/06/04 03:04:43;;;;;;;12.90;8.10;;;;;;;8.41;62.08;101094.59;5035988;28;20087;-58
2022/06/04 03:07:14;;;;;;;13.95;9.50;;;;;;;8.67;63.03;101143.38;5033844;28;20046;-59
2022/06/04 03:09:46;;;;;;;15.13;9.07;;;;;;;8.53;62.07;101146.75;5024628;28;20340;-58
2022/06/04 03:12:16;;;;;;;14.18;7.97;;;;;;;8.44;62.41;101136.28;5033063;28;20050;-58
2022/06/04 03:14:48;;;;;;;15.32;9.57;;;;;;;8.45;63.39;101140.63;5040851;28;20119;-58
2022/06/04 03:17:19;;;;;;;21.48;10.80;;;;;;;8.36;62.77;101132.72;5040845;28;20061;-58
2022/06/04 03:19:49;;;;;;;11.80;7.28;;;;;;;8.28;62.77;101145.69;5040461;28;20409;-59
2022/06/04 03:22:20;;;;;;;16.88;9.55;;;;;;;8.33;63.57;101137.91;5040533;28;20115;-58
2022/06/04 03:24:50;;;;;;;17.88;9.57;;;;;;;8.31;63.29;101145.72;5039571;28;20062;-57
2022/06/04 03:27:20;;;;;;;16.42;9.98;;;;;;;8.18;63.64;101139.53;5033884;28;20061;-59
2022/06/04 03:29:53;;;;;;;18.35;9.77;;;;;;;8.31;63.30;101144.84;5024334;28;20124;-60
2022/06/04 03:32:23;;;;;;;15.68;8.63;;;;;;;8.38;63.82;101146.63;5025149;28;20598;-59
2022/06/04 03:34:54;;;;;;;13.82;8.10;;;;;;;8.47;62.89;101136.31;5025990;28;20080;-59
2022/06/04 03:37:24;;;;;;;12.15;8.20;;;;;;;8.58;63.25;101145.03;5026439;28;20069;-58
2022/06/04 03:39:54;;;;;;;15.43;9.23;;;;;;;8.73;62.99;101138.19;5026269;28;20061;-58
2022/06/04 03:42:25;;;;;;;17.00;8.90;;;;;;;8.66;62.56;101139.00;5025949;28;20071;-59
2022/06/04 03:44:57;;;;;;;15.60;8.63;;;;;;;8.72;62.08;101147.75;5026038;28;20059;-58
2022/06/04 03:47:28;;;;;;;13.75;8.88;;;;;;;8.64;61.72;101152.91;5025978;28;20147;-58
2022/06/04 03:49:58;;;;;;;19.15;11.00;;;;;;;8.66;62.57;101146.81;5025656;28;20041;-59
2022/06/04 03:52:29;;;;;;;11.60;8.20;;;;;;;8.79;60.53;101138.22;5025868;28;20139;-59
2022/06/04 03:54:59;;;;;;;14.85;8.13;;;;;;;8.76;62.03;101132.97;5026108;28;20061;-59
2022/06/04 03:57:41;;;;;;;12.73;7.22;;;;;;;8.62;60.69;101127.72;5025653;28;20053;-59
2022/06/04 04:00:18;;;;;;;15.88;8.18;;;;;;;8.30;62.44;101059.78;5026081;28;20050;-59
2022/06/04 04:02:50;;;;;;;11.10;7.15;;;;;;;8.68;61.27;101119.06;5026052;28;20054;-58
2022/06/04 04:05:22;;;;;;;15.50;8.75;;;;;;;8.79;61.12;101112.16;5026500;28;20053;-59
2022/06/04 04:07:54;;;;;;;13.95;8.27;;;;;;;9.24;60.74;101141.88;5025462;28;20068;-58
2022/06/04 04:10:25;;;;;;;18.00;8.70;;;;;;;8.95;60.81;101129.59;5025675;28;20065;-58
2022/06/04 04:12:56;;;;;;;13.57;7.90;;;;;;;9.03;62.33;101142.66;5025043;28;20062;-59
2022/06/04 04:15:29;;;;;;;10.73;5.30;;;;;;;8.83;65.70;101139.97;5025547;28;20570;-58
2022/06/04 04:17:59;;;;;;;13.95;5.18;;;;;;;8.68;66.77;101145.09;5025479;28;20053;-58
2022/06/04 04:20:31;;;;;;;10.80;5.30;;;;;;;8.06;68.01;101113.41;5024611;28;20086;-58
2022/06/04 04:23:02;;;;;;;18.58;5.50;;;;;;;8.09;68.99;101149.03;5024997;28;20054;-59
2022/06/04 04:25:33;;;;;;;10.52;4.80;;;;;;;7.72;69.74;101149.56;5025800;28;20168;-59
2022/06/04 04:28:05;;;;;;;12.02;5.72;;;;;;;7.58;70.99;101145.97;5025700;28;20120;-58
2022/06/04 04:30:38;;;;;;;18.52;6.38;;;;;;;7.54;71.68;101149.41;5025998;28;20934;-58
2022/06/04 04:33:09;;;;;;;10.10;5.30;;;;;;;7.68;70.91;101152.97;5024690;28;20053;-58
2022/06/04 04:35:39;;;;;;;11.52;5.53;;;;;;;7.62;70.79;101158.16;5025405;28;20072;-59
2022/06/04 04:38:11;;;;;;;10.77;5.30;;;;;;;7.38;70.64;101157.88;5025462;28;20054;-59
2022/06/04 04:40:44;;;;;;;17.08;6.90;;;;;;;7.22;70.63;101147.31;5025590;28;20066;-59
2022/06/04 04:43:15;;;;;;;11.80;6.28;;;;;;;7.08;71.60;101159.25;5024879;28;20124;-60
2022/06/04 04:45:47;;;;;;;12.77;5.28;;;;;;;6.96;71.87;101164.31;5024624;28;20248;-59
2022/06/04 04:48:22;;;;;;;11.40;5.60;;;;;;;6.89;71.66;101156.44;5025297;28;20053;-60
2022/06/04 04:50:53;;;;;;;17.17;5.38;;;;;;;6.84;72.43;101165.91;5024000;28;20062;-59
2022/06/04 04:53:23;;;;;;;12.60;6.05;;;;;;;6.75;72.57;101165.78;5024722;28;20049;-60
2022/06/04 04:55:54;;;;;;;13.73;6.68;;;;;;;6.62;74.35;101161.28;5024711;28;20314;-59
2022/06/04 04:58:24;;;;;;;11.57;6.03;;;;;;;6.57;74.58;101170.72;5025239;28;20396;-59
2022/06/04 05:00:56;;;;;;;12.85;6.22;;;;;;;6.57;74.67;101170.72;5024520;28;20370;-60
2022/06/04 05:03:27;;;;;;;12.82;6.47;;;;;;;6.54;75.16;101170.66;5022986;28;20394;-59
2022/06/04 05:06:02;;;;;;;17.77;7.00;;;;;;;6.08;73.51;101107.69;5024765;28;20267;-60
2022/06/04 05:08:32;;;;;;;11.05;6.05;;;;;;;6.55;74.55;101172.41;5024728;28;20049;-59
2022/06/04 05:11:09;;;;;;;9.85;5.25;;;;;;;6.16;75.49;101132.03;5024677;28;20056;-59
2022/06/04 05:13:39;;;;;;;10.63;5.93;;;;;;;6.23;75.25;101170.19;5023995;28;20053;-59
2022/06/04 05:16:12;;;;;;;11.15;6.32;;;;;;;5.92;75.11;101128.16;5025034;28;20069;-59
2022/06/04 05:18:42;;;;;;;11.35;5.15;;;;;;;6.17;75.26;101155.41;5024580;28;20046;-59
2022/06/04 05:21:19;;;;;;;11.25;6.47;;;;;;;6.18;74.92;101151.09;5023500;28;20057;-59
2022/06/04 05:23:50;;;;;;;9.40;5.22;;;;;;;6.00;75.20;101152.53;5024140;28;20056;-60
2022/06/04 05:26:21;;;;;;;10.00;5.40;;;;;;;6.09;75.69;101171.69;5023498;28;20068;-59
2022/06/04 05:28:52;;;;;;;12.57;6.13;;;;;;;6.05;76.78;101156.06;5024287;28;20096;-59
2022/06/04 05:31:24;;;;;;;19.10;5.88;;;;;;;6.21;75.86;101161.50;5023679;28;20049;-59
2022/06/04 05:33:54;;;;;;;10.73;6.07;;;;;;;6.29;75.73;101159.94;5022578;28;20100;-59
2022/06/04 05:36:25;;;;;;;12.93;6.43;;;;;;;6.28;75.10;101167.69;5023837;28;20049;-59
2022/06/04 05:38:55;;;;;;;12.32;6.22;;;;;;;6.21;74.86;101156.31;5024322;28;20060;-59
2022/06/04 05:41:26;;;;;;;12.52;7.05;;;;;;;6.23;75.18;101162.41;5023790;28;20045;-59
2022/06/04 05:43:56;;;;;;;11.70;6.80;;;;;;;6.10;75.17;101157.88;5024353;28;20053;-60
2022/06/04 05:46:28;;;;;;;14.30;7.05;;;;;;;5.90;75.92;101150.59;5032506;28;20256;-59
2022/06/04 05:49:00;;;;;;;15.30;6.55;;;;;;;5.94;75.95;101152.44;5036179;28;20251;-58
2022/06/04 05:51:31;;;;;;;13.60;6.95;;;;;;;5.96;76.20;101145.53;5036447;28;20134;-59
2022/06/04 05:54:02;;;;;;;14.77;8.27;;;;;;;5.91;76.43;101139.38;5036663;28;20087;-59
2022/06/04 05:56:38;;;;;;;9.73;6.45;;;;;;;5.93;76.99;101148.06;5030187;28;20065;-59
2022/06/04 05:59:10;;;;;;;12.90;7.25;;;;;;;5.92;77.44;101143.72;5029157;28;20049;-59
2022/06/04 06:01:44;;;;;;;12.90;6.72;;;;;;;5.96;77.67;101140.34;5022023;28;20400;-58
2022/06/04 06:04:16;;;;;;;14.40;6.65;;;;;;;5.88;76.49;101121.16;5033760;28;20065;-60
2022/06/04 06:06:48;;;;;;;13.18;6.50;;;;;;;5.69;77.17;101113.91;5036050;28;20057;-60
2022/06/04 06:09:21;;;;;;;15.07;6.30;;;;;;;5.65;77.50;101122.50;5035807;28;20041;-59
2022/06/04 06:11:53;;;;;;;11.95;6.88;;;;;;;5.70;77.37;101133.84;5035432;28;20053;-59
2022/06/04 06:14:24;;;;;;;11.82;7.30;;;;;;;5.81;77.63;101130.56;5032462;28;20052;-59
2022/06/04 06:16:56;;;;;;;19.85;6.75;;;;;;;5.84;77.55;101129.72;5036017;28;20367;-57
2022/06/04 06:19:27;;;;;;;11.45;7.47;;;;;;;5.81;77.27;101134.88;5029939;28;20601;-58
2022/06/04 06:21:58;;;;;;;16.67;8.40;;;;;;;5.97;77.80;101136.06;5015972;28;20064;-59
2022/06/04 06:24:28;;;;;;;14.63;7.78;;;;;;;6.01;76.18;101128.31;5016707;28;20064;-59
2022/06/04 06:27:00;;;;;;;11.40;6.38;;;;;;;6.10;76.81;101122.41;5022918;28;20050;-59
2022/06/04 06:29:33;;;;;;;14.40;8.25;;;;;;;6.34;76.13;101116.75;5024352;28;20100;-59
2022/06/04 06:32:06;;;;;;;15.18;7.45;;;;;;;6.62;75.89;101117.13;5020347;28;20045;-59
2022/06/04 06:34:36;;;;;;;13.27;6.68;;;;;;;6.58;73.73;101121.38;5019910;28;20050;-59
2022/06/04 06:37:06;;;;;;;17.30;7.15;;;;;;;6.26;75.28;101084.59;5020628;28;20053;-60
2022/06/04 06:39:37;;;;;;;11.38;7.05;;;;;;;6.61;75.24;101110.16;5017830;28;20068;-59
2022/06/04 06:42:07;;;;;;;14.35;7.28;;;;;;;6.59;75.04;101111.88;5022868;28;20082;-58
2022/06/04 06:44:38;;;;;;;8.82;5.78;;;;;;;6.44;74.61;101118.63;5022353;28;20144;-59
2022/06/04 06:47:11;;;;;;;12.13;6.97;;;;;;;6.19;75.15;101116.47;5023605;28;20588;-59
2022/06/04 06:49:42;;;;;;;16.15;6.82;;;;;;;6.17;75.51;101115.63;5022625;28;20046;-59
2022/06/04 06:52:16;;;;;;;13.60;6.60;;;;;;;6.01;75.72;101117.94;5026145;28;20391;-59
2022/06/04 06:54:46;;;;;;;12.00;6.85;;;;;;;6.07;76.97;101106.81;5024058;28;20065;-60
2022/06/04 06:57:19;;;;;;;13.60;5.97;;;;;;;6.06;76.33;101105.06;5020691;28;20058;-60
2022/06/04 06:59:49;;;;;;;9.48;5.47;;;;;;;5.94;76.39;101105.75;5021022;28;20592;-60
2022/06/04 07:02:21;;;;;;;13.32;6.03;;;;;;;5.77;75.83;101101.97;5022577;28;20045;-60
2022/06/04 07:04:52;;;;;;;10.23;5.72;;;;;;;5.66;76.24;101124.25;5022460;28;20061;-60
2022/06/04 07:07:23;;;;;;;11.45;5.72;;;;;;;5.50;77.14;101112.75;5023362;28;20091;-60
2022/06/04 07:09:54;;;;;;;10.68;6.00;;;;;;;5.49;76.95;101116.16;5023171;28;20049;-59
2022/06/04 07:12:24;;;;;;;10.15;5.78;;;;;;;5.43;77.78;101126.44;5022836;28;20054;-59
2022/06/04 07:14:55;;;;;;;9.63;5.22;;;;;;;5.37;77.50;101127.19;5020510;28;20333;-59
2022/06/04 07:17:28;;;;;;;10.60;5.60;;;;;;;5.65;77.55;101117.31;5022398;28;20045;-58
2022/06/04 07:19:59;;;;;;;19.05;6.43;;;;;;;5.84;76.24;101114.16;5022394;28;20122;-59
2022/06/04 07:22:29;;;;;;;12.20;6.20;;;;;;;5.76;76.76;101105.41;5022912;28;20050;-58
2022/06/04 07:24:59;;;;;;;12.52;6.25;;;;;;;5.66;77.50;101113.88;5022093;28;20120;-58
2022/06/04 07:27:30;;;;;;;19.27;5.95;;;;;;;5.48;78.05;101104.91;5018377;28;20072;-59
2022/06/04 07:30:00;;;;;;;10.70;6.32;;;;;;;5.37;79.00;101117.69;5021095;28;20064;-58
2022/06/04 07:32:32;;;;;;;10.90;6.32;;;;;;;5.49;78.77;101106.69;5021457;28;20049;-58
2022/06/04 07:35:03;;;;;;;14.23;6.30;;;;;;;5.41;79.24;101108.25;5022051;28;20054;-58
2022/06/04 07:37:33;;;;;;;17.33;8.18;;;;;;;5.59;79.02;101108.59;5021758;28;20152;-59
2022/06/04 07:40:04;;;;;;;14.75;6.53;;;;;;;5.73;78.82;101107.94;5022600;28;20065;-59
2022/06/04 07:42:34;;;;;;;11.20;6.53;;;;;;;5.58;78.09;101106.81;5021697;28;20079;-58
2022/06/04 07:45:06;;;;;;;11.73;6.30;;;;;;;5.37;78.82;101112.50;5022534;28;20058;-59
2022/06/04 07:47:40;;;;;;;12.40;6.18;;;;;;;5.24;79.49;101109.66;5021108;28;20069;-58
2022/06/04 07:50:12;;;;;;;11.73;5.88;;;;;;;5.08;80.05;101114.53;5021426;28;20057;-58
2022/06/04 07:52:43;;;;;;;7.80;4.68;;;;;;;4.97;79.68;101111.75;5023041;28;20054;-58
2022/06/04 07:55:13;;;;;;;13.95;6.50;;;;;;;4.86;80.24;101117.53;5021777;28;20061;-59
2022/06/04 07:57:44;;;;;;;11.52;5.85;;;;;;;4.73;79.86;101111.25;5026232;28;20077;-59
2022/06/04 08:00:15;;;;;;;11.05;6.78;;;;;;;4.75;81.56;101131.16;5025672;28;20073;-58
2022/06/04 08:02:48;;;;;;;18.63;7.65;;;;;;;4.78;80.77;101129.47;5025270;28;20501;-58
2022/06/04 08:05:23;;;;;;;10.38;6.43;;;;;;;4.79;80.70;101120.84;5025699;28;20084;-58
2022/06/04 08:07:54;;;;;;;13.30;6.80;;;;;;;4.67;81.37;101132.69;5025687;28;20096;-59
2022/06/04 08:10:24;;;;;;;13.25;7.15;;;;;;;4.62;81.90;101117.88;5024128;28;20372;-59
2022/06/04 08:12:55;;;;;;;12.60;6.72;;;;;;;4.53;81.56;101118.59;5025923;28;20053;-59
2022/06/04 08:15:25;;;;;;;11.32;5.88;;;;;;;4.37;82.02;101111.31;5023962;28;20361;-59
2022/06/04 08:17:58;;;;;;;18.52;7.40;;;;;;;4.36;82.24;101119.91;5025091;28;20070;-60
2022/06/04 08:20:28;;;;;;;13.98;7.32;;;;;;;4.36;82.51;101117.34;5023583;28;20202;-60
2022/06/04 08:22:59;;;;;;;16.88;6.50;;;;;;;4.41;83.07;101115.72;5023021;28;20057;-60
2022/06/04 08:25:29;;;;;;;13.25;6.65;;;;;;;4.32;82.75;101119.00;5024829;28;20073;-60
2022/06/04 08:28:00;;;;;;;13.90;7.80;;;;;;;4.19;83.60;101107.47;5023555;28;20049;-58
2022/06/04 08:30:30;;;;;;;17.20;7.65;;;;;;;4.04;83.87;101109.69;5024237;28;20100;-58
2022/06/04 08:33:02;;;;;;;11.85;6.60;;;;;;;3.93;84.61;101132.72;5024045;28;20648;-58
2022/06/04 08:35:33;;;;;;;14.30;7.22;;;;;;;3.80;84.58;101102.22;5023928;28;20053;-60
2022/06/04 08:38:08;;;;;;;15.57;6.22;;;;;;;3.92;84.14;101128.41;5025157;28;20359;-59
2022/06/04 08:40:40;;;;;;;13.45;7.65;;;;;;;3.87;84.87;101120.50;5024314;28;20061;-59
2022/06/04 08:43:18;;;;;;;13.68;7.60;;;;;;;3.88;84.38;101119.66;5025309;28;20088;-60
2022/06/04 08:45:48;;;;;;;11.85;7.65;;;;;;;3.79;84.49;101127.19;5025422;28;20432;-60
2022/06/04 08:48:32;;;;;;;12.50;6.65;;;;;;;3.82;84.85;101132.47;5023556;28;20053;-60
2022/06/04 08:51:03;;;;;;;17.75;7.50;;;;;;;3.55;84.74;101085.25;5024212;28;20054;-60
2022/06/04 08:53:33;;;;;;;15.95;7.70;;;;;;;3.80;85.01;101134.13;5025365;28;20054;-60
2022/06/04 08:59:03;;;;;;;15.88;8.23;;;;;;;3.85;85.23;101132.53;5024467;28;20053;-60
2022/06/04 09:01:37;;;;;;;14.68;8.35;;;;;;;3.83;85.54;101129.03;5025136;28;20053;-60
2022/06/04 09:04:25;;;;;;;18.42;7.68;;;;;;;3.79;85.22;101127.19;5025160;28;20049;-60
2022/06/04 09:07:04;;;;;;;13.57;8.73;;;;;;;3.75;85.66;101125.38;5024102;28;20398;-60
2022/06/04 09:09:42;;;;;;;14.27;8.30;;;;;;;3.78;85.77;101130.63;5024597;28;20057;-59
2022/06/04 09:12:31;;;;;;;17.98;8.90;;;;;;;3.72;85.94;101130.47;5025224;28;20129;-59
2022/06/04 09:15:06;;;;;;;14.60;7.53;;;;;;;3.60;85.87;101127.56;5024667;28;20037;-59
2022/06/04 09:17:41;;;;;;;15.25;7.82;;;;;;;3.55;85.95;101121.41;5023490;28;20053;-60
2022/06/04 09:20:26;;;;;;;16.45;7.90;;;;;;;3.43;86.28;101116.78;5024758;28;20288;-60
2022/06/04 09:23:02;;;;;;;15.10;8.38;;;;;;;3.46;86.68;101133.25;5023926;28;20096;-60
2022/06/04 09:25:45;;;;;;;20.00;9.23;;;;;;;3.18;86.89;101100.63;5023323;28;20076;-60
2022/06/04 09:28:37;;;;;;;18.05;8.50;;;;;;;3.33;87.16;101126.00;5023339;28;20300;-61
2022/06/04 09:31:19;;;;;;;16.05;8.85;;;;;;;3.37;87.75;101133.03;5024693;28;20118;-60
2022/06/04 09:33:56;;;;;;;16.15;8.70;;;;;;;3.30;87.48;101128.50;5024245;28;20448;-59
2022/06/04 09:36:32;;;;;;;16.02;7.13;;;;;;;3.26;87.90;101144.75;5024478;28;20056;-60
2022/06/04 09:39:05;;;;;;;15.98;8.30;;;;;;;3.28;88.30;101153.44;5023965;28;20120;-60
2022/06/04 09:41:36;;;;;;;18.48;8.52;;;;;;;3.31;87.97;101163.84;5022636;28;20256;-60
2022/06/04 09:44:14;;;;;;;15.70;7.68;;;;;;;3.03;87.86;101110.56;5022820;28;20422;-60
2022/06/04 09:46:46;;;;;;;21.33;9.68;;;;;;;3.26;88.32;101149.91;5024083;28;20062;-60
2022/06/04 09:49:36;;;;;;;17.35;8.85;;;;;;;3.36;87.81;101151.91;5022767;28;20054;-60
2022/06/04 09:52:23;;;;;;;16.25;8.38;;;;;;;3.33;87.96;101151.84;5023520;28;20077;-60
2022/06/04 09:54:56;;;;;;;17.83;8.57;;;;;;;3.14;87.97;101110.84;5023982;28;20963;-60
2022/06/04 09:57:33;;;;;;;22.33;8.50;;;;;;;3.44;88.14;101145.28;5023689;28;20931;-60
2022/06/04 10:00:08;;;;;;;20.00;9.10;;;;;;;3.39;87.63;101136.50;5022868;28;20107;-60
2022/06/04 10:02:39;;;;;;;15.88;8.70;;;;;;;3.44;87.33;101150.44;5023458;28;20041;-60
2022/06/04 10:05:22;;;;;;;17.17;8.88;;;;;;;3.40;87.46;101148.59;5024216;28;20057;-60
2022/06/04 10:07:54;;;;;;;15.07;9.00;;;;;;;3.38;87.36;101154.56;5022822;28;20060;-60
2022/06/04 10:10:31;;;;;;;20.02;9.38;;;;;;;3.31;88.13;101152.63;5022047;28;20045;-60
2022/06/04 10:15:59;;;;;;;16.17;7.65;;;;;;;3.26;88.20;101144.75;5021949;28;20041;-60
2022/06/04 10:18:35;;;;;;;14.98;8.45;;;;;;;3.28;88.42;101148.25;5022759;28;20156;-60
2022/06/04 10:21:07;;;;;;;18.33;9.25;;;;;;;3.25;88.66;101153.34;5022596;28;20052;-60
2022/06/04 10:23:46;;;;;;;17.13;8.73;;;;;;;3.24;88.73;101156.75;5023847;28;20058;-60
2022/06/04 10:26:53;;;;;;;19.65;9.93;;;;;;;3.23;88.65;101155.00;5022048;28;20057;-60
2022/06/04 10:29:51;;;;;;;16.48;9.35;;;;;;;3.22;88.98;101150.66;5013557;28;20060;-60
2022/06/04 10:32:31;;;;;;;20.20;10.52;;;;;;;3.18;89.19;101135.94;5022144;28;20053;-60
2022/06/04 10:35:32;;;;;;;21.48;10.68;;;;;;;3.23;89.20;101140.38;5021337;28;20041;-60
2022/06/04 10:38:17;;;;;;;21.00;10.32;;;;;;;3.18;89.19;101148.84;5022163;28;20068;-60
2022/06/04 10:41:05;;;;;;;19.45;10.07;;;;;;;3.14;89.14;101150.44;5022842;28;20685;-60
2022/06/04 10:44:10;;;;;;;20.30;9.82;;;;;;;3.07;89.50;101155.41;5023316;28;20195;-60
2022/06/04 10:46:51;;;;;;;22.05;11.15;;;;;;;3.09;89.81;101152.03;5023253;28;20108;-60
2022/06/04 10:49:38;;;;;;;15.85;9.55;;;;;;;2.96;89.71;101122.41;5023355;28;20053;-60
2022/06/04 10:52:20;;;;;;;19.67;9.55;;;;;;;2.99;89.92;101161.22;5022967;28;20061;-60
2022/06/04 10:55:05;;;;;;;21.73;10.80;;;;;;;2.85;89.99;101121.25;5021519;28;20053;-60
2022/06/04 10:57:41;;;;;;;;;;;;;;;2.96;89.71;101155.97;5022154;28;20070;-59
2022/06/04 11:00:14;;;;;;;21.92;10.60;;;;;;;2.94;90.04;101162.78;5021365;28;19925;-59
2022/06/04 11:02:53;;;;;;;25.60;11.27;;;;;;;2.91;90.42;101167.88;5023253;28;20073;-59
2022/06/04 11:05:27;;;;;;;22.77;9.98;;;;;;;2.91;90.24;101154.97;5022986;28;20084;-59
2022/06/04 11:08:03;;;;;;;22.17;10.43;;;;;;;2.92;90.41;101159.31;5022913;28;20214;-60
2022/06/04 11:10:41;;;;;;;24.20;11.70;;;;;;;2.91;90.56;101156.66;5022206;28;20054;-59
2022/06/04 11:13:18;;;;;;;24.48;11.82;;;;;;;2.54;90.57;101114.28;5023651;28;20047;-60
2022/06/04 11:15:53;;;;;;;23.58;12.40;;;;;;;2.85;90.78;101157.38;5022924;28;20077;-60
2022/06/04 11:18:30;;;;;;;28.83;11.85;;;;;;;2.82;90.29;101146.94;5023299;28;20272;-59
2022/06/04 11:21:06;;;;;;;22.30;11.27;;;;;;;2.83;90.69;101158.16;5021451;28;20155;-60
2022/06/04 11:23:45;;;;;;;19.17;10.93;;;;;;;2.74;90.59;101156.16;5022538;28;20129;-60
2022/06/04 11:26:23;;;;;;;17.90;9.27;;;;;;;2.65;90.80;101143.00;5022214;28;20084;-59
2022/06/04 11:29:04;;;;;;;20.92;11.48;;;;;;;2.75;90.71;101155.34;5020645;28;20076;-59
2022/06/04 11:31:54;;;;;;;19.63;9.88;;;;;;;2.72;90.73;101163.88;5026749;28;20541;-59
2022/06/04 11:34:54;;;;;;;21.45;11.88;;;;;;;2.72;90.82;101157.81;5024567;28;20053;-60
2022/06/04 11:37:38;;;;;;;26.08;10.75;;;;;;;2.72;90.75;101150.06;5027022;28;20366;-59
2022/06/04 11:40:28;;;;;;;19.70;10.45;;;;;;;2.71;91.15;101153.50;5026982;28;20124;-59
2022/06/04 11:43:01;;;;;;;19.85;10.05;;;;;;;2.67;91.36;101156.81;5026550;28;20065;-59
2022/06/04 11:45:46;;;;;;;18.75;10.45;;;;;;;2.66;91.23;101155.06;5026776;28;20060;-59
2022/06/04 11:48:32;;;;;;;20.98;10.73;;;;;;;2.66;91.33;101152.50;5026972;28;20248;-59
2022/06/04 11:51:17;;;;;;;20.52;10.30;;;;;;;2.63;90.99;101149.81;5024280;28;20081;-59
2022/06/04 11:53:53;;;;;;;20.45;11.32;;;;;;;2.55;91.61;101147.88;5025734;28;20383;-60
2022/06/04 11:56:37;;;;;;;24.10;10.98;;;;;;;2.61;91.38;101146.31;5026251;28;20378;-60
2022/06/04 11:59:29;;;;;;;18.52;10.85;;;;;;;2.58;91.61;101142.81;5025118;28;20120;-60
2022/06/04 12:02:07;;;;;;;18.27;10.48;;;;;;;2.56;91.74;101149.63;5025632;28;20070;-59
2022/06/04 12:04:45;;;;;;;24.20;12.05;;;;;;;2.65;91.64;101138.72;5026248;28;20109;-59
2022/06/04 12:07:20;;;;;;;26.58;11.93;;;;;;;2.74;91.57;101148.44;5024087;28;20292;-59
2022/06/04 12:10:03;;;;;;;23.40;11.13;;;;;;;2.74;91.04;101128.66;5026681;28;20062;-59
2022/06/04 12:12:39;;;;;;;21.25;10.43;;;;;;;2.70;90.86;101141.44;5026336;28;20379;-59